Time;durP1;ratioP1;P1;durP2;ratioP2;P2;SDS_P1;SDS_P2;PMS_P1;PMS_P2;Temp;Humidity;BMP_temperature;BMP_pressure;BME280_temperature;BME280_humidity;BME280_pressure;Samples;Min_cycle;Max_cycle;Signal;HPM_P1;HPM_P2
2022/11/26 00:00:51;;;;;;;;;;;1.70;99.90;;;;;;5054732;28;19954;-67
2022/11/26 00:03:17;;;;;;;;;;;1.70;99.90;;;;;;5054061;28;19909;-67
2022/11/26 00:05:44;;;;;;;;;;;1.80;99.90;;;;;;5054375;28;19915;-67
2022/11/26 00:08:39;;;;;;;;;;;1.80;99.90;;;;;;5054026;28;20286;-67
2022/11/26 00:11:06;;;;;;;;;;;1.80;99.90;;;;;;5040757;28;19916;-67
2022/11/26 00:13:35;;;;;;;;;;;1.80;99.90;;;;;;5053417;28;19932;-67
2022/11/26 00:16:00;;;;;;;;;;;1.70;99.90;;;;;;5054084;28;19909;-67
2022/11/26 00:18:26;;;;;;;;;;;1.70;99.90;;;;;;5054105;28;20388;-67
2022/11/26 00:20:55;;;;;;;;;;;1.70;99.90;;;;;;5053837;28;20006;-67
2022/11/26 00:23:24;;;;;;;;;;;1.70;99.90;;;;;;5054237;28;19958;-67
2022/11/26 00:26:00;;;;;;;;;;;1.70;99.90;;;;;;5035844;28;19909;-67
2022/11/26 00:28:30;;;;;;;;;;;1.80;99.90;;;;;;5054191;28;20288;-67
2022/11/26 00:30:56;;;;;;;;;;;1.80;99.90;;;;;;5053941;28;19915;-67
2022/11/26 00:33:22;;;;;;;;;;;1.80;99.90;;;;;;5053564;28;19913;-67
2022/11/26 00:35:49;;;;;;;;;;;1.80;99.90;;;;;;5053833;28;19915;-67
2022/11/26 00:38:17;;;;;;;;;;;1.70;99.90;;;;;;5053543;28;20258;-67
2022/11/26 00:40:43;;;;;;;;;;;1.70;99.90;;;;;;5053879;28;19915;-67
2022/11/26 00:43:12;;;;;;;;;;;1.70;99.90;;;;;;5053584;28;19913;-67
2022/11/26 00:45:37;;;;;;;;;;;1.80;99.90;;;;;;5053443;28;19944;-67
2022/11/26 00:48:03;;;;;;;;;;;1.80;99.90;;;;;;5053667;28;19956;-67
2022/11/26 00:50:32;;;;;;;;;;;1.80;99.90;;;;;;5053703;28;20345;-67
2022/11/26 00:52:58;;;;;;;;;;;1.80;99.90;;;;;;5054025;28;20341;-67
2022/11/26 00:55:29;;;;;;;;;;;1.80;99.90;;;;;;5053377;28;20014;-67
2022/11/26 00:57:55;;;;;;;;;;;1.80;99.90;;;;;;5053327;28;19920;-67
2022/11/26 01:00:23;;;;;;;;;;;1.80;99.90;;;;;;5053358;28;19916;-67
2022/11/26 01:02:48;;;;;;;;;;;1.80;99.90;;;;;;5053350;28;20392;-67
2022/11/26 01:05:14;;;;;;;;;;;1.80;99.90;;;;;;5053286;28;19913;-67
2022/11/26 01:07:40;;;;;;;;;;;1.80;99.90;;;;;;5053174;28;19912;-67
2022/11/26 01:10:06;;;;;;;;;;;1.90;99.90;;;;;;5035452;28;20353;-67
2022/11/26 01:12:32;;;;;;;;;;;1.90;99.90;;;;;;5053580;28;20008;-67
2022/11/26 01:14:57;;;;;;;;;;;1.80;99.90;;;;;;5053233;28;20344;-67
2022/11/26 01:17:23;;;;;;;;;;;1.80;99.90;;;;;;5053487;28;20015;-67
2022/11/26 01:19:48;;;;;;;;;;;1.80;99.90;;;;;;5053161;28;19912;-67
2022/11/26 01:22:19;;;;;;;;;;;1.80;99.90;;;;;;5053191;28;19919;-67
2022/11/26 01:24:44;;;;;;;;;;;1.80;99.90;;;;;;5053456;28;19916;-67
2022/11/26 01:27:11;;;;;;;;;;;1.70;99.90;;;;;;5056628;28;19913;-67
2022/11/26 01:29:36;;;;;;;;;;;1.70;99.90;;;;;;5057255;28;20032;-66
2022/11/26 01:32:02;;;;;;;;;;;1.70;99.90;;;;;;5057247;28;19992;-67
2022/11/26 01:34:27;;;;;;;;;;;1.60;99.90;;;;;;5057403;28;19912;-67
2022/11/26 01:36:53;;;;;;;;;;;1.70;99.90;;;;;;5056908;28;19952;-67
2022/11/26 01:39:20;;;;;;;;;;;1.70;99.90;;;;;;5056838;28;20281;-66
2022/11/26 01:42:04;;;;;;;;;;;1.70;99.90;;;;;;5056754;28;19908;-67
2022/11/26 01:44:31;;;;;;;;;;;1.70;99.90;;;;;;5056667;28;19913;-67
2022/11/26 01:46:57;;;;;;;;;;;1.70;99.90;;;;;;5038787;28;19970;-66
2022/11/26 01:49:24;;;;;;;;;;;1.70;99.90;;;;;;5056540;28;19920;-66
2022/11/26 01:51:59;;;;;;;;;;;1.70;99.90;;;;;;5056615;28;19920;-67
2022/11/26 01:54:24;;;;;;;;;;;1.70;99.90;;;;;;5056475;28;19912;-67
2022/11/26 01:56:51;;;;;;;;;;;1.70;99.90;;;;;;5038563;28;19912;-67
2022/11/26 01:59:31;;;;;;;;;;;1.70;99.90;;;;;;5056415;28;20046;-67
2022/11/26 02:01:57;;;;;;;;;;;1.70;99.90;;;;;;5056988;28;19955;-67
2022/11/26 02:04:26;;;;;;;;;;;1.70;99.90;;;;;;5056301;28;19958;-67
2022/11/26 02:06:53;;;;;;;;;;;1.70;99.90;;;;;;5056342;28;19909;-67
2022/11/26 02:09:19;;;;;;;;;;;1.70;99.90;;;;;;5056741;28;20373;-67
2022/11/26 02:11:44;;;;;;;;;;;1.70;99.90;;;;;;5056830;28;19955;-67
2022/11/26 02:14:18;;;;;;;;;;;1.70;99.90;;;;;;5056116;28;19917;-67
2022/11/26 02:17:02;;;;;;;;;;;1.60;99.90;;;;;;5056712;28;19959;-67
2022/11/26 02:19:33;;;;;;;;;;;1.60;99.90;;;;;;5056080;28;19927;-67
2022/11/26 02:22:03;;;;;;;;;;;1.60;99.90;;;;;;5038117;28;19913;-67
2022/11/26 02:24:46;;;;;;;;;;;1.60;99.90;;;;;;5038016;28;19909;-67
2022/11/26 02:27:27;;;;;;;;;;;1.60;99.90;;;;;;5056232;28;20324;-67
2022/11/26 02:29:56;;;;;;;;;;;1.60;99.90;;;;;;5055798;28;19913;-67
2022/11/26 02:32:24;;;;;;;;;;;1.60;99.90;;;;;;5055804;28;19997;-67
2022/11/26 02:34:53;;;;;;;;;;;1.70;99.90;;;;;;5037809;28;19951;-67
2022/11/26 02:37:25;;;;;;;;;;;1.60;99.90;;;;;;5054605;28;19909;-67
2022/11/26 02:39:50;;;;;;;;;;;1.60;99.90;;;;;;5056036;28;19967;-67
2022/11/26 02:42:29;;;;;;;;;;;1.70;99.90;;;;;;5055680;28;20373;-67
2022/11/26 02:44:56;;;;;;;;;;;1.70;99.90;;;;;;5055867;28;19975;-67
2022/11/26 02:47:23;;;;;;;;;;;1.70;99.90;;;;;;5055859;28;19913;-67
2022/11/26 02:49:50;;;;;;;;;;;1.70;99.90;;;;;;5055440;28;20376;-67
2022/11/26 02:52:17;;;;;;;;;;;1.70;99.90;;;;;;5055490;28;19916;-67
2022/11/26 02:54:43;;;;;;;;;;;1.70;99.90;;;;;;5055343;28;19912;-67
2022/11/26 02:57:12;;;;;;;;;;;1.70;99.90;;;;;;5055655;28;19916;-67
2022/11/26 02:59:39;;;;;;;;;;;1.70;99.90;;;;;;5054941;28;20458;-67
2022/11/26 03:02:14;;;;;;;;;;;1.70;99.90;;;;;;5055284;28;19913;-67
2022/11/26 03:04:42;;;;;;;;;;;1.70;99.90;;;;;;5055147;28;19912;-67
2022/11/26 03:07:08;;;;;;;;;;;1.70;99.90;;;;;;5055211;28;19908;-67
2022/11/26 03:09:39;;;;;;;;;;;1.70;99.90;;;;;;5037175;28;19912;-67
2022/11/26 03:12:04;;;;;;;;;;;1.70;99.90;;;;;;5055428;28;19909;-67
2022/11/26 03:14:30;;;;;;;;;;;1.70;99.90;;;;;;5054973;28;19919;-67
2022/11/26 03:16:55;;;;;;;;;;;1.70;99.90;;;;;;5055022;28;19912;-67
2022/11/26 03:19:21;;;;;;;;;;;1.70;99.90;;;;;;5055180;28;19924;-67
2022/11/26 03:21:46;;;;;;;;;;;1.70;99.90;;;;;;5054937;28;19908;-67
2022/11/26 03:24:12;;;;;;;;;;;1.70;99.90;;;;;;5054995;28;20369;-67
2022/11/26 03:26:37;;;;;;;;;;;1.70;99.90;;;;;;5054828;28;20292;-67
2022/11/26 03:29:03;;;;;;;;;;;1.70;99.90;;;;;;5055302;28;20380;-67
2022/11/26 03:31:29;;;;;;;;;;;1.70;99.90;;;;;;5054764;28;19913;-67
2022/11/26 03:33:54;;;;;;;;;;;1.70;99.90;;;;;;5036740;28;19913;-67
2022/11/26 03:36:20;;;;;;;;;;;1.70;99.90;;;;;;5054666;28;19917;-67
2022/11/26 03:38:45;;;;;;;;;;;1.70;99.90;;;;;;5053645;28;19919;-67
2022/11/26 03:41:11;;;;;;;;;;;1.70;99.90;;;;;;5055088;28;19913;-67
2022/11/26 03:43:36;;;;;;;;;;;1.70;99.90;;;;;;5054980;28;20038;-67
2022/11/26 03:46:02;;;;;;;;;;;1.70;99.90;;;;;;5036569;28;19920;-67
2022/11/26 03:48:27;;;;;;;;;;;1.70;99.90;;;;;;5054102;28;19917;-67
2022/11/26 03:50:53;;;;;;;;;;;1.70;99.90;;;;;;5054589;28;19913;-67
2022/11/26 03:53:18;;;;;;;;;;;1.70;99.90;;;;;;5054248;28;19955;-67
2022/11/26 03:55:44;;;;;;;;;;;1.70;99.90;;;;;;5054550;28;19920;-67
2022/11/26 03:58:09;;;;;;;;;;;1.70;99.90;;;;;;5054157;28;19924;-67
2022/11/26 04:00:35;;;;;;;;;;;1.70;99.90;;;;;;5053264;28;20454;-67
2022/11/26 04:03:01;;;;;;;;;;;1.70;99.90;;;;;;5054155;28;19920;-67
2022/11/26 04:05:26;;;;;;;;;;;1.70;99.90;;;;;;5054048;28;19916;-67
2022/11/26 04:07:52;;;;;;;;;;;1.70;99.90;;;;;;5053945;28;19912;-67
2022/11/26 04:10:17;;;;;;;;;;;1.70;99.90;;;;;;5054029;28;20009;-67
2022/11/26 04:12:43;;;;;;;;;;;1.70;99.90;;;;;;5053956;28;19970;-67
2022/11/26 04:15:09;;;;;;;;;;;1.70;99.90;;;;;;5054141;28;20004;-67
2022/11/26 04:17:34;;;;;;;;;;;1.70;99.90;;;;;;5054093;28;19920;-67
2022/11/26 04:20:00;;;;;;;;;;;1.70;99.90;;;;;;5053847;28;19960;-67
2022/11/26 04:22:25;;;;;;;;;;;1.70;99.90;;;;;;5035971;28;19913;-67
2022/11/26 04:24:51;;;;;;;;;;;1.70;99.90;;;;;;5053758;28;19917;-67
2022/11/26 04:27:16;;;;;;;;;;;1.70;99.90;;;;;;5053751;28;19974;-67
2022/11/26 04:29:42;;;;;;;;;;;1.60;99.90;;;;;;5053906;28;19916;-67
2022/11/26 04:32:07;;;;;;;;;;;1.60;99.90;;;;;;5053674;28;20061;-67
2022/11/26 04:34:33;;;;;;;;;;;1.50;99.90;;;;;;5053567;28;19956;-67
2022/11/26 04:36:58;;;;;;;;;;;1.50;99.90;;;;;;5035806;28;20001;-67
2022/11/26 04:39:24;;;;;;;;;;;1.50;99.90;;;;;;5053545;28;19919;-67
2022/11/26 04:41:49;;;;;;;;;;;1.50;99.90;;;;;;5053604;28;19916;-67
2022/11/26 04:44:15;;;;;;;;;;;1.50;99.90;;;;;;5035876;28;19919;-67
2022/11/26 04:46:40;;;;;;;;;;;1.50;99.90;;;;;;5053510;28;19912;-67
2022/11/26 04:49:06;;;;;;;;;;;1.60;99.90;;;;;;5053628;28;19920;-67
2022/11/26 04:51:31;;;;;;;;;;;1.60;99.90;;;;;;5053486;28;19920;-67
2022/11/26 04:53:57;;;;;;;;;;;1.60;99.90;;;;;;5053374;28;19913;-67
2022/11/26 04:56:22;;;;;;;;;;;1.60;99.90;;;;;;5053412;28;19912;-67
2022/11/26 04:58:48;;;;;;;;;;;1.60;99.90;;;;;;5053356;28;20479;-67
2022/11/26 05:01:14;;;;;;;;;;;1.60;99.90;;;;;;5055447;28;19958;-67
2022/11/26 05:03:39;;;;;;;;;;;1.60;99.90;;;;;;5057485;28;19913;-67
2022/11/26 05:06:05;;;;;;;;;;;1.60;99.90;;;;;;5058340;28;20007;-68
2022/11/26 05:08:30;;;;;;;;;;;1.60;99.90;;;;;;5057331;28;19917;-68
2022/11/26 05:10:57;;;;;;;;;;;1.60;99.90;;;;;;5057635;28;19909;-68
2022/11/26 05:13:23;;;;;;;;;;;1.60;99.90;;;;;;5057300;28;20470;-68
2022/11/26 05:15:48;;;;;;;;;;;1.60;99.90;;;;;;5057283;28;19913;-68
2022/11/26 05:18:14;;;;;;;;;;;1.70;99.90;;;;;;5057750;28;19913;-68
2022/11/26 05:20:39;;;;;;;;;;;1.70;99.90;;;;;;5057441;28;19940;-68
2022/11/26 05:23:05;;;;;;;;;;;1.70;99.90;;;;;;5057098;28;20002;-67
2022/11/26 05:25:30;;;;;;;;;;;1.60;99.90;;;;;;5038044;28;19913;-67
2022/11/26 05:27:56;;;;;;;;;;;1.60;99.90;;;;;;5056834;28;19960;-68
2022/11/26 05:30:21;;;;;;;;;;;1.60;99.90;;;;;;5053158;28;19916;-68
2022/11/26 05:32:47;;;;;;;;;;;1.60;99.90;;;;;;5055943;28;19913;-68
2022/11/26 05:35:12;;;;;;;;;;;1.60;99.90;;;;;;5055372;28;20004;-68
2022/11/26 05:37:38;;;;;;;;;;;1.70;99.90;;;;;;5056638;28;20410;-68
2022/11/26 05:40:04;;;;;;;;;;;1.60;99.90;;;;;;5056068;28;19913;-68
2022/11/26 05:42:30;;;;;;;;;;;1.60;99.90;;;;;;5056531;28;19913;-68
2022/11/26 05:44:55;;;;;;;;;;;1.60;99.90;;;;;;5055785;28;19963;-68
2022/11/26 05:47:21;;;;;;;;;;;1.60;99.90;;;;;;5038739;28;19967;-68
2022/11/26 05:49:46;;;;;;;;;;;1.60;99.90;;;;;;5037402;28;19971;-68
2022/11/26 05:52:12;;;;;;;;;;;1.70;99.90;;;;;;5056498;28;20365;-68
2022/11/26 05:54:37;;;;;;;;;;;1.70;99.90;;;;;;5055345;28;19948;-68
2022/11/26 05:57:03;;;;;;;;;;;1.70;99.90;;;;;;5056346;28;19916;-68
2022/11/26 05:59:29;;;;;;;;;;;1.70;99.90;;;;;;5057067;28;19924;-68
2022/11/26 06:01:54;;;;;;;;;;;1.70;99.90;;;;;;5056490;28;19917;-68
2022/11/26 06:04:20;;;;;;;;;;;1.60;99.90;;;;;;5056631;28;19917;-68
2022/11/26 06:06:45;;;;;;;;;;;1.60;99.90;;;;;;5056026;28;20005;-68
2022/11/26 06:09:12;;;;;;;;;;;1.60;99.90;;;;;;5055126;28;19924;-68
2022/11/26 06:11:38;;;;;;;;;;;1.50;99.90;;;;;;5056772;28;20369;-67
2022/11/26 06:14:04;;;;;;;;;;;1.50;99.90;;;;;;5056334;28;19963;-68
2022/11/26 06:16:29;;;;;;;;;;;1.50;99.90;;;;;;5056194;28;19913;-67
2022/11/26 06:18:55;;;;;;;;;;;1.40;99.90;;;;;;5056132;28;19919;-68
2022/11/26 06:21:21;;;;;;;;;;;1.40;99.90;;;;;;5056052;28;19913;-68
2022/11/26 06:23:46;;;;;;;;;;;1.40;99.90;;;;;;5056249;28;20004;-68
2022/11/26 06:26:12;;;;;;;;;;;1.40;99.90;;;;;;5056013;28;19909;-68
2022/11/26 06:28:38;;;;;;;;;;;1.40;99.90;;;;;;5055874;28;19913;-68
2022/11/26 06:31:03;;;;;;;;;;;1.40;99.90;;;;;;5055932;28;19916;-68
2022/11/26 06:33:29;;;;;;;;;;;1.40;99.90;;;;;;5055817;28;19958;-68
2022/11/26 06:35:59;;;;;;;;;;;1.40;99.90;;;;;;5056118;28;19996;-68
2022/11/26 06:38:24;;;;;;;;;;;1.50;99.90;;;;;;5055758;28;19912;-68
2022/11/26 06:40:57;;;;;;;;;;;1.50;99.90;;;;;;5055776;28;19924;-68
2022/11/26 06:43:22;;;;;;;;;;;1.50;99.90;;;;;;5055624;28;19912;-68
2022/11/26 06:45:48;;;;;;;;;;;1.50;99.90;;;;;;5055749;28;20269;-68
2022/11/26 06:48:13;;;;;;;;;;;1.50;99.90;;;;;;5037742;28;20325;-68
2022/11/26 06:50:39;;;;;;;;;;;1.50;99.90;;;;;;5055606;28;20446;-68
2022/11/26 06:53:04;;;;;;;;;;;1.60;99.90;;;;;;5055797;28;19913;-68
2022/11/26 06:55:30;;;;;;;;;;;1.50;99.90;;;;;;5055477;28;20288;-68
2022/11/26 06:57:55;;;;;;;;;;;1.60;99.90;;;;;;5055286;28;19964;-68
2022/11/26 07:00:21;;;;;;;;;;;1.60;99.90;;;;;;5055389;28;19909;-68
2022/11/26 07:02:46;;;;;;;;;;;1.60;99.90;;;;;;5055654;28;19932;-68
2022/11/26 07:05:12;;;;;;;;;;;1.60;99.90;;;;;;5037476;28;19963;-68
2022/11/26 07:07:38;;;;;;;;;;;1.60;99.90;;;;;;5055230;28;19913;-68
2022/11/26 07:10:04;;;;;;;;;;;1.60;99.90;;;;;;5037354;28;20003;-68
2022/11/26 07:12:29;;;;;;;;;;;1.60;99.90;;;;;;5055063;28;19959;-68
2022/11/26 07:14:55;;;;;;;;;;;1.60;99.90;;;;;;5055060;28;19920;-68
2022/11/26 07:17:21;;;;;;;;;;;1.60;99.90;;;;;;5055392;28;19913;-68
2022/11/26 07:19:46;;;;;;;;;;;1.60;99.90;;;;;;5055280;28;19913;-68
2022/11/26 07:22:12;;;;;;;;;;;1.60;99.90;;;;;;5055451;28;19920;-68
2022/11/26 07:24:37;;;;;;;;;;;1.60;99.90;;;;;;5036374;28;19913;-68
2022/11/26 07:27:03;;;;;;;;;;;1.60;99.90;;;;;;5055166;28;19947;-68
2022/11/26 07:29:28;;;;;;;;;;;1.60;99.90;;;;;;5054769;28;19962;-68
2022/11/26 07:31:54;;;;;;;;;;;1.60;99.90;;;;;;5055365;28;19963;-68
2022/11/26 07:34:19;;;;;;;;;;;1.70;99.90;;;;;;5054974;28;19939;-68
2022/11/26 07:36:45;;;;;;;;;;;1.70;99.90;;;;;;5054697;28;20003;-68
2022/11/26 07:39:11;;;;;;;;;;;1.70;99.90;;;;;;5036820;28;19913;-68
2022/11/26 07:41:36;;;;;;;;;;;1.80;99.90;;;;;;5054956;28;19967;-68
2022/11/26 07:44:02;;;;;;;;;;;1.80;99.90;;;;;;5054486;28;20423;-68
2022/11/26 07:46:28;;;;;;;;;;;1.80;99.90;;;;;;5036622;28;19913;-68
2022/11/26 07:48:54;;;;;;;;;;;1.70;99.90;;;;;;5054686;28;19912;-68
2022/11/26 07:51:22;;;;;;;;;;;1.80;99.90;;;;;;5054407;28;19913;-68
2022/11/26 07:53:48;;;;;;;;;;;1.80;99.90;;;;;;5054240;28;20299;-68
2022/11/26 07:56:14;;;;;;;;;;;1.80;99.90;;;;;;5054403;28;19996;-68
2022/11/26 07:58:39;;;;;;;;;;;1.80;99.90;;;;;;5054240;28;19924;-68
2022/11/26 08:01:09;;;;;;;;;;;1.80;99.90;;;;;;5055069;28;19913;-68
2022/11/26 08:03:42;;;;;;;;;;;1.90;99.90;;;;;;5054136;28;19916;-68
2022/11/26 08:06:09;;;;;;;;;;;1.90;99.90;;;;;;5054156;28;19920;-68
2022/11/26 08:08:35;;;;;;;;;;;1.90;99.90;;;;;;5054057;28;19912;-68
2022/11/26 08:11:01;;;;;;;;;;;1.90;99.90;;;;;;5054582;28;20066;-68
2022/11/26 08:13:27;;;;;;;;;;;2.00;99.90;;;;;;5036097;28;19915;-68
2022/11/26 08:15:52;;;;;;;;;;;2.00;99.90;;;;;;5036128;28;20345;-68
2022/11/26 08:18:18;;;;;;;;;;;2.00;99.90;;;;;;5054247;28;20422;-68
2022/11/26 08:20:43;;;;;;;;;;;2.00;99.90;;;;;;5053957;28;19919;-68
2022/11/26 08:23:09;;;;;;;;;;;2.00;99.90;;;;;;5053893;28;19982;-67
2022/11/26 08:25:34;;;;;;;;;;;2.10;99.90;;;;;;5035914;28;19944;-68
2022/11/26 08:28:00;;;;;;;;;;;2.10;99.90;;;;;;5035794;28;19917;-68
2022/11/26 08:30:25;;;;;;;;;;;2.10;99.90;;;;;;5035969;28;19935;-68
2022/11/26 08:32:51;;;;;;;;;;;2.10;99.90;;;;;;5053726;28;19913;-68
2022/11/26 08:35:17;;;;;;;;;;;2.10;99.90;;;;;;5034939;28;19952;-68
2022/11/26 08:37:42;;;;;;;;;;;2.10;99.90;;;;;;5036409;28;19913;-68
2022/11/26 08:40:08;;;;;;;;;;;2.20;99.90;;;;;;5035798;28;19913;-68
2022/11/26 08:42:33;;;;;;;;;;;2.20;99.90;;;;;;5053882;28;20387;-68
2022/11/26 08:44:59;;;;;;;;;;;2.20;99.90;;;;;;5019157;28;19920;-68
2022/11/26 08:47:24;;;;;;;;;;;2.20;99.90;;;;;;5054070;28;19913;-68
2022/11/26 08:49:50;;;;;;;;;;;2.20;99.90;;;;;;5053746;28;19921;-68
2022/11/26 08:52:16;;;;;;;;;;;2.30;99.90;;;;;;5053556;28;19920;-68
2022/11/26 08:54:41;;;;;;;;;;;2.30;99.90;;;;;;5053383;28;20347;-68
2022/11/26 08:57:07;;;;;;;;;;;2.40;99.90;;;;;;5053735;28;19919;-68
2022/11/26 08:59:32;;;;;;;;;;;2.40;99.90;;;;;;5053292;28;19920;-68
2022/11/26 09:01:58;;;;;;;;;;;2.40;99.90;;;;;;5053636;28;20395;-68
2022/11/26 09:04:23;;;;;;;;;;;2.50;99.90;;;;;;5053307;28;19909;-68
2022/11/26 09:06:49;;;;;;;;;;;2.50;99.90;;;;;;5035423;28;19920;-68
2022/11/26 09:09:16;;;;;;;;;;;2.60;99.90;;;;;;5053516;28;19920;-68
2022/11/26 09:11:44;;;;;;;;;;;2.60;99.90;;;;;;5053638;28;19920;-68
2022/11/26 09:14:10;;;;;;;;;;;2.70;99.90;;;;;;5053214;28;19952;-68
2022/11/26 09:16:36;;;;;;;;;;;2.70;99.90;;;;;;5053796;28;20315;-68
2022/11/26 09:19:02;;;;;;;;;;;2.80;99.90;;;;;;5053242;28;19938;-68
2022/11/26 09:21:28;;;;;;;;;;;2.80;99.90;;;;;;5053235;28;19912;-68
2022/11/26 09:23:53;;;;;;;;;;;2.80;99.90;;;;;;5053537;28;20018;-68
2022/11/26 09:26:20;;;;;;;;;;;2.90;99.90;;;;;;5053766;28;20007;-68
2022/11/26 09:28:47;;;;;;;;;;;2.90;99.90;;;;;;5053106;28;20008;-68
2022/11/26 09:31:13;;;;;;;;;;;2.90;99.90;;;;;;5035390;28;20365;-68
2022/11/26 09:33:38;;;;;;;;;;;2.90;99.90;;;;;;5052927;28;19916;-68
2022/11/26 09:36:05;;;;;;;;;;;3.00;99.90;;;;;;5053036;28;20277;-68
2022/11/26 09:38:30;;;;;;;;;;;3.00;99.90;;;;;;5053048;28;20376;-68
2022/11/26 09:41:16;;;;;;;;;;;3.00;99.90;;;;;;5035105;28;19959;-68
2022/11/26 09:43:50;;;;;;;;;;;3.00;99.90;;;;;;5052542;28;20276;-68
2022/11/26 09:46:19;;;;;;;;;;;3.10;99.90;;;;;;5035484;28;19909;-68
2022/11/26 09:48:45;;;;;;;;;;;3.10;99.90;;;;;;5056838;28;19913;-68
2022/11/26 09:51:12;;;;;;;;;;;3.20;99.90;;;;;;5056989;28;20007;-68
2022/11/26 09:53:43;;;;;;;;;;;3.30;99.90;;;;;;5056587;28;19916;-68
2022/11/26 09:56:13;;;;;;;;;;;3.30;99.90;;;;;;5056892;28;19931;-68
2022/11/26 09:59:00;;;;;;;;;;;3.50;99.90;;;;;;5056436;28;19920;-68
2022/11/26 10:01:26;;;;;;;;;;;3.60;99.90;;;;;;5056765;28;19909;-68
2022/11/26 10:03:52;;;;;;;;;;;3.70;99.90;;;;;;5038467;28;20380;-68
2022/11/26 10:06:23;;;;;;;;;;;3.90;99.90;;;;;;5056455;28;19975;-68
2022/11/26 10:08:49;;;;;;;;;;;4.00;99.90;;;;;;5056553;28;19913;-70
2022/11/26 10:11:24;;;;;;;;;;;4.00;99.90;;;;;;5056215;28;19955;-68
2022/11/26 10:13:49;;;;;;;;;;;4.20;99.90;;;;;;5056293;28;19913;-68
2022/11/26 10:16:18;;;;;;;;;;;4.20;99.90;;;;;;5038564;28;19976;-68
2022/11/26 10:18:53;;;;;;;;;;;4.40;99.90;;;;;;5056719;28;19908;-68
2022/11/26 10:21:24;;;;;;;;;;;4.50;99.90;;;;;;5056433;28;19931;-68
2022/11/26 10:23:50;;;;;;;;;;;4.50;99.90;;;;;;5056014;28;20007;-68
2022/11/26 10:26:22;;;;;;;;;;;4.60;99.90;;;;;;5056037;28;19955;-68
2022/11/26 10:28:49;;;;;;;;;;;4.70;99.90;;;;;;5056488;28;19913;-68
2022/11/26 10:31:20;;;;;;;;;;;4.70;99.90;;;;;;5056007;28;19913;-68
2022/11/26 10:33:51;;;;;;;;;;;4.80;99.90;;;;;;5056072;28;20334;-68
2022/11/26 10:36:21;;;;;;;;;;;4.80;99.90;;;;;;5056130;28;20361;-68
2022/11/26 10:38:46;;;;;;;;;;;4.70;99.90;;;;;;5056062;28;19989;-68
2022/11/26 10:41:12;;;;;;;;;;;4.70;99.90;;;;;;5055761;28;19992;-67
2022/11/26 10:43:38;;;;;;;;;;;4.60;99.90;;;;;;5038132;28;20392;-69
2022/11/26 10:46:04;;;;;;;;;;;4.60;99.90;;;;;;5038090;28;19920;-68
2022/11/26 10:48:30;;;;;;;;;;;4.50;99.90;;;;;;5055792;28;20011;-69
2022/11/26 10:51:00;;;;;;;;;;;4.40;99.90;;;;;;5055793;28;19916;-68
2022/11/26 10:53:26;;;;;;;;;;;4.30;99.90;;;;;;5055493;28;19908;-68
2022/11/26 10:55:59;;;;;;;;;;;4.30;99.90;;;;;;5055717;28;19913;-69
2022/11/26 10:58:30;;;;;;;;;;;4.20;99.90;;;;;;5054351;28;19924;-68
2022/11/26 11:01:01;;;;;;;;;;;4.20;99.90;;;;;;5055651;28;19931;-68
2022/11/26 11:03:29;;;;;;;;;;;4.20;99.90;;;;;;5055288;28;20395;-68
2022/11/26 11:06:10;;;;;;;;;;;4.20;99.90;;;;;;5037950;28;19909;-69
2022/11/26 11:08:35;;;;;;;;;;;4.20;99.90;;;;;;5055180;28;20016;-68
2022/11/26 11:11:02;;;;;;;;;;;4.10;99.90;;;;;;5055196;28;19948;-68
2022/11/26 11:13:41;;;;;;;;;;;4.10;99.90;;;;;;5055068;28;20448;-68
2022/11/26 11:16:08;;;;;;;;;;;4.10;99.90;;;;;;5055054;28;19909;-68
2022/11/26 11:18:34;;;;;;;;;;;4.10;99.90;;;;;;5055034;28;20365;-68
2022/11/26 11:21:02;;;;;;;;;;;4.10;99.90;;;;;;5055277;28;19936;-68
2022/11/26 11:23:32;;;;;;;;;;;4.10;99.90;;;;;;5054909;28;20299;-67
2022/11/26 11:26:05;;;;;;;;;;;4.20;99.90;;;;;;5036946;28;19909;-68
2022/11/26 11:28:32;;;;;;;;;;;4.10;99.90;;;;;;5055077;28;19939;-68
2022/11/26 11:31:01;;;;;;;;;;;4.20;99.90;;;;;;5055020;28;19908;-68
2022/11/26 11:33:27;;;;;;;;;;;4.20;99.90;;;;;;5036773;28;19909;-68
2022/11/26 11:35:59;;;;;;;;;;;4.20;99.90;;;;;;5054931;28;20292;-68
2022/11/26 11:38:26;;;;;;;;;;;4.30;99.90;;;;;;5054645;28;19909;-68
2022/11/26 11:40:51;;;;;;;;;;;4.30;99.90;;;;;;5054866;28;20288;-68
2022/11/26 11:43:18;;;;;;;;;;;4.40;99.90;;;;;;5054780;28;19939;-68
2022/11/26 11:46:07;;;;;;;;;;;4.50;99.90;;;;;;5036829;28;19913;-68
2022/11/26 11:48:45;;;;;;;;;;;4.60;99.90;;;;;;5051159;28;19913;-68
2022/11/26 11:51:37;;;;;;;;;;;4.60;99.90;;;;;;5054430;28;19909;-68
2022/11/26 11:54:03;;;;;;;;;;;4.70;99.90;;;;;;5035121;28;19909;-68
2022/11/26 11:56:44;;;;;;;;;;;4.80;99.90;;;;;;5054889;28;19909;-68
2022/11/26 11:59:13;;;;;;;;;;;4.80;99.90;;;;;;5054111;28;19921;-68
2022/11/26 12:01:48;;;;;;;;;;;4.80;99.90;;;;;;5054778;28;19917;-68
2022/11/26 12:04:19;;;;;;;;;;;4.90;99.90;;;;;;5054121;28;19909;-68
2022/11/26 12:07:00;;;;;;;;;;;4.90;99.90;;;;;;5054074;28;19909;-68
2022/11/26 12:09:32;;;;;;;;;;;5.10;99.90;;;;;;5053829;28;19912;-68
2022/11/26 12:12:11;;;;;;;;;;;5.10;99.90;;;;;;5054617;28;19959;-68
2022/11/26 12:14:46;;;;;;;;;;;5.00;99.90;;;;;;5053968;28;19909;-68
2022/11/26 12:17:12;;;;;;;;;;;5.00;99.90;;;;;;5054258;28;19954;-68
2022/11/26 12:19:42;;;;;;;;;;;5.00;99.90;;;;;;5054175;28;19908;-68
2022/11/26 12:22:23;;;;;;;;;;;5.00;99.90;;;;;;5054177;28;20357;-68
2022/11/26 12:24:51;;;;;;;;;;;5.00;99.90;;;;;;5053875;28;19916;-68
2022/11/26 12:27:17;;;;;;;;;;;5.00;99.90;;;;;;5053809;28;20280;-69
2022/11/26 12:29:49;;;;;;;;;;;5.00;99.90;;;;;;5053720;28;19912;-68
2022/11/26 12:32:17;;;;;;;;;;;5.00;99.90;;;;;;5053820;28;19916;-68
2022/11/26 12:34:48;;;;;;;;;;;5.00;99.90;;;;;;5053936;28;19951;-68
2022/11/26 12:37:14;;;;;;;;;;;5.00;99.90;;;;;;5053633;28;20257;-68
2022/11/26 12:39:48;;;;;;;;;;;5.00;99.90;;;;;;5053565;28;20007;-68
2022/11/26 12:42:16;;;;;;;;;;;5.00;99.90;;;;;;5053581;28;19909;-68
2022/11/26 12:44:51;;;;;;;;;;;5.00;99.90;;;;;;5053458;28;19916;-68
2022/11/26 12:47:25;;;;;;;;;;;5.00;99.90;;;;;;5054668;28;20343;-68
2022/11/26 12:50:14;;;;;;;;;;;4.90;99.90;;;;;;5053711;28;19924;-68
2022/11/26 12:52:54;;;;;;;;;;;4.90;99.90;;;;;;5053804;28;19913;-68
2022/11/26 12:55:29;;;;;;;;;;;4.90;99.90;;;;;;5035680;28;19913;-68
2022/11/26 12:57:57;;;;;;;;;;;4.90;99.90;;;;;;5053123;28;19947;-68
2022/11/26 13:00:35;;;;;;;;;;;4.90;99.90;;;;;;5053312;28;19915;-68
2022/11/26 13:03:01;;;;;;;;;;;4.80;99.90;;;;;;5019394;28;19924;-68
2022/11/26 13:05:27;;;;;;;;;;;4.80;99.90;;;;;;5053287;28;19962;-68
2022/11/26 13:08:01;;;;;;;;;;;4.80;99.90;;;;;;5053897;28;19913;-68
2022/11/26 13:10:30;;;;;;;;;;;4.80;99.90;;;;;;5053605;28;20300;-67
2022/11/26 13:13:05;;;;;;;;;;;4.80;99.90;;;;;;5053495;28;19940;-67
2022/11/26 13:15:40;;;;;;;;;;;4.80;99.90;;;;;;5054238;28;19912;-68
2022/11/26 13:18:12;;;;;;;;;;;4.80;99.90;;;;;;5053230;28;19916;-68
2022/11/26 13:20:37;;;;;;;;;;;4.70;99.90;;;;;;5053229;28;19931;-68
2022/11/26 13:23:18;;;;;;;;;;;4.70;99.90;;;;;;5057042;28;20399;-68
2022/11/26 13:25:50;;;;;;;;;;;4.70;99.90;;;;;;5057390;28;19999;-68
2022/11/26 13:28:34;;;;;;;;;;;4.70;99.90;;;;;;5057006;28;20281;-68
2022/11/26 13:31:18;;;;;;;;;;;4.70;99.90;;;;;;5057033;28;20323;-68
2022/11/26 13:34:02;;;;;;;;;;;4.70;99.90;;;;;;5057171;28;19908;-68
2022/11/26 13:36:34;;;;;;;;;;;4.80;99.90;;;;;;5056905;28;20441;-68
2022/11/26 13:39:33;;;;;;;;;;;4.70;99.90;;;;;;5056902;28;19940;-68
2022/11/26 13:41:59;;;;;;;;;;;4.70;99.90;;;;;;5057153;28;20049;-68
2022/11/26 13:44:28;;;;;;;;;;;4.70;99.90;;;;;;5056728;28;20284;-68
2022/11/26 13:46:53;;;;;;;;;;;4.70;99.90;;;;;;5038853;28;19995;-68
2022/11/26 13:49:25;;;;;;;;;;;4.60;99.90;;;;;;5038845;28;20353;-68
2022/11/26 13:51:56;;;;;;;;;;;4.60;99.90;;;;;;5056968;28;19912;-67
2022/11/26 13:54:25;;;;;;;;;;;4.60;99.90;;;;;;5056558;28;19917;-67
2022/11/26 13:56:57;;;;;;;;;;;4.60;99.90;;;;;;5056558;28;19912;-67
2022/11/26 13:59:23;;;;;;;;;;;4.50;99.90;;;;;;5056509;28;19920;-68
2022/11/26 14:01:48;;;;;;;;;;;4.50;99.90;;;;;;5038561;28;19971;-67
2022/11/26 14:04:34;;;;;;;;;;;4.50;99.90;;;;;;5056635;28;19913;-67
2022/11/26 14:07:02;;;;;;;;;;;4.40;99.90;;;;;;5056334;28;19915;-67
2022/11/26 14:09:47;;;;;;;;;;;4.40;99.90;;;;;;5056264;28;19912;-67
2022/11/26 14:12:13;;;;;;;;;;;4.40;99.90;;;;;;5056224;28;20402;-67
2022/11/26 14:14:39;;;;;;;;;;;4.40;99.90;;;;;;5056490;28;19916;-67
2022/11/26 14:17:05;;;;;;;;;;;4.40;99.90;;;;;;5056155;28;19975;-67
2022/11/26 14:19:39;;;;;;;;;;;4.30;99.90;;;;;;5056130;28;20365;-67
2022/11/26 14:22:06;;;;;;;;;;;4.30;99.90;;;;;;5056376;28;19909;-67
2022/11/26 14:24:50;;;;;;;;;;;4.30;99.90;;;;;;5056006;28;19909;-67
2022/11/26 14:27:19;;;;;;;;;;;4.30;99.90;;;;;;5055987;28;19909;-67
2022/11/26 14:29:46;;;;;;;;;;;4.30;99.90;;;;;;5055885;28;19920;-67
2022/11/26 14:32:13;;;;;;;;;;;4.20;99.90;;;;;;5055703;28;19995;-68
2022/11/26 14:34:42;;;;;;;;;;;4.20;99.90;;;;;;5054956;28;20051;-67
2022/11/26 14:37:12;;;;;;;;;;;4.20;99.90;;;;;;5037940;28;19909;-68